createdAt,value
2018-08-24T00:04:20.288Z,0.0
2018-08-24T00:14:34.439Z,0.0
2018-08-24T00:24:48.574Z,0.0
2018-08-24T00:35:02.801Z,0.0
2018-08-24T00:45:17.057Z,0.0
2018-08-24T01:05:45.395Z,0.0
2018-08-24T01:15:58.862Z,0.0
2018-08-24T01:26:12.937Z,0.0
2018-08-24T01:36:32.651Z,0.0
2018-08-24T01:46:46.277Z,0.0
2018-08-24T01:56:59.527Z,0.0
2018-08-24T02:07:12.745Z,0.0
2018-08-24T02:17:26.053Z,0.0
2018-08-24T02:27:40.470Z,0.0
2018-08-24T02:37:54.415Z,0.0
2018-08-24T02:48:07.970Z,0.0
2018-08-24T02:58:22.091Z,0.0
2018-08-24T03:08:35.982Z,0.0
2018-08-24T03:18:47.412Z,0.0
2018-08-24T03:29:01.777Z,0.0
2018-08-24T03:39:15.962Z,0.0
2018-08-24T03:49:30.046Z,0.0
2018-08-24T03:59:44.478Z,4.0
2018-08-24T04:10:29.884Z,8.0
2018-08-24T04:20:44.220Z,32.0
2018-08-24T04:30:55.421Z,64.0
2018-08-24T04:41:09.777Z,136.0
2018-08-24T04:51:23.997Z,316.0
2018-08-24T05:02:09.719Z,468.0
2018-08-24T05:12:20.934Z,412.0
2018-08-24T05:22:32.239Z,548.0
2018-08-24T05:32:45.766Z,1148.0
2018-08-24T05:53:19.548Z,640.0
2018-08-24T06:03:33.385Z,616.0
2018-08-24T06:13:47.144Z,1172.0
2018-08-24T06:24:05.346Z,1424.0
2018-08-24T06:34:18.541Z,192.0
2018-08-24T06:44:37.710Z,1164.0
2018-08-24T06:54:52.324Z,1748.0
2018-08-24T07:05:06.677Z,1788.0
2018-08-24T07:15:27.582Z,3092.0
2018-08-24T07:25:41.004Z,3152.0
2018-08-24T07:35:54.202Z,1460.0
2018-08-24T07:46:07.905Z,2068.0
2018-08-24T07:56:35.562Z,2764.0
2018-08-24T08:06:49.061Z,11060.0
2018-08-24T08:17:03.185Z,5052.0
2018-08-24T08:27:16.308Z,11384.0
2018-08-24T08:37:29.852Z,43968.0
2018-08-24T08:48:16.877Z,14944.0
2018-08-24T08:58:30.094Z,9264.0
2018-08-24T09:11:15.863Z,43168.0
2018-08-24T09:22:29.101Z,52576.0
2018-08-24T09:34:07.979Z,55904.0
2018-08-24T09:44:21.478Z,14416.0
2018-08-24T09:55:33.111Z,57888.0
2018-08-24T10:07:02.463Z,64992.0
2018-08-24T10:17:49.193Z,9556.0
2018-08-24T10:28:03.193Z,10508.0
2018-08-24T10:38:17.867Z,62432.0
2018-08-24T10:48:32.364Z,15352.0
2018-08-24T10:58:46.262Z,38656.0
2018-08-24T11:08:59.800Z,54400.0
2018-08-24T11:19:13.258Z,59456.0
2018-08-24T11:30:06.507Z,69440.0
2018-08-24T11:40:20.365Z,11380.0
2018-08-24T11:50:44.959Z,11720.0
2018-08-24T12:11:14.907Z,73248.0
2018-08-24T12:21:58.079Z,11556.0
2018-08-24T12:32:12.397Z,17376.0
2018-08-24T12:43:00.450Z,66720.0
2018-08-24T12:54:08.913Z,69696.0
2018-08-24T13:05:03.611Z,56576.0
2018-08-24T13:26:33.654Z,14180.0
2018-08-24T13:36:47.764Z,19104.0
2018-08-24T13:57:44.950Z,18240.0
2018-08-24T14:09:01.720Z,21824.0
2018-08-24T14:30:29.159Z,16928.0
2018-08-24T14:41:20.422Z,8872.0
2018-08-24T15:02:28.995Z,14176.0
2018-08-24T15:13:11.321Z,11352.0
2018-08-24T15:23:49.819Z,8640.0
2018-08-24T15:34:15.069Z,5668.0
2018-08-24T15:55:26.130Z,4788.0
2018-08-24T16:05:46.388Z,3256.0
2018-08-24T16:26:14.881Z,4316.0
2018-08-24T16:36:47.786Z,4432.0
2018-08-24T16:57:51.317Z,3260.0
2018-08-24T17:08:02.984Z,2192.0
2018-08-24T17:28:37.337Z,1128.0
2018-08-24T17:38:57.427Z,896.0
2018-08-24T17:59:30.682Z,600.0
2018-08-24T18:09:46.253Z,380.0
2018-08-24T18:20:05.565Z,300.0
2018-08-24T18:30:35.393Z,152.0
2018-08-24T18:40:51.437Z,64.0
2018-08-24T19:01:41.787Z,4.0
2018-08-24T19:22:21.773Z,0.0
2018-08-24T19:32:43.795Z,0.0
2018-08-24T19:43:04.228Z,0.0
2018-08-24T19:53:18.469Z,0.0
2018-08-24T20:03:32.544Z,0.0
2018-08-24T20:13:47.367Z,0.0
2018-08-24T20:24:00.888Z,0.0
2018-08-24T20:34:45.749Z,0.0
2018-08-24T20:44:59.288Z,0.0
2018-08-24T21:06:41.080Z,0.0
2018-08-24T21:17:09.370Z,0.0
2018-08-24T21:27:40.229Z,0.0
2018-08-24T21:48:43.785Z,0.0
2018-08-24T21:59:28.481Z,0.0
2018-08-24T22:09:41.788Z,0.0
2018-08-24T22:19:55.311Z,0.0
2018-08-24T22:30:09.499Z,0.0
2018-08-24T22:41:42.984Z,0.0
2018-08-24T22:52:33.349Z,0.0
2018-08-24T23:02:46.590Z,0.0
2018-08-24T23:12:59.810Z,0.0
2018-08-24T23:23:14.305Z,0.0
